sensor_id;sensor_type;location;lat;lon;timestamp;pressure;altitude;pressure_sealevel;temperature;humidity
74544;BME280;63016;55.030;38.710;2023-05-02T00:01:36;100423.94;;;7.22;55.57
74544;BME280;63016;55.030;38.710;2023-05-02T00:04:02;100431.44;;;7.25;55.71
74544;BME280;63016;55.030;38.710;2023-05-02T00:06:29;100441.81;;;7.25;55.46
74544;BME280;63016;55.030;38.710;2023-05-02T00:08:56;100440.31;;;7.22;55.56
74544;BME280;63016;55.030;38.710;2023-05-02T00:11:21;100435.38;;;7.19;55.58
74544;BME280;63016;55.030;38.710;2023-05-02T00:13:48;100428.94;;;7.14;55.91
74544;BME280;63016;55.030;38.710;2023-05-02T00:16:14;100451.63;;;7.12;55.67
74544;BME280;63016;55.030;38.710;2023-05-02T00:18:40;100452.00;;;7.07;55.93
74544;BME280;63016;55.030;38.710;2023-05-02T00:21:05;100454.72;;;7.06;55.97
74544;BME280;63016;55.030;38.710;2023-05-02T00:23:31;100455.81;;;7.03;56.04
74544;BME280;63016;55.030;38.710;2023-05-02T00:25:57;100458.53;;;7.02;55.64
74544;BME280;63016;55.030;38.710;2023-05-02T00:28:22;100468.19;;;7.00;56.19
74544;BME280;63016;55.030;38.710;2023-05-02T00:30:48;100470.22;;;6.96;56.30
74544;BME280;63016;55.030;38.710;2023-05-02T00:33:14;100461.75;;;6.94;55.72
74544;BME280;63016;55.030;38.710;2023-05-02T00:35:40;100462.84;;;6.91;55.69
74544;BME280;63016;55.030;38.710;2023-05-02T00:38:06;100460.50;;;6.88;56.20
74544;BME280;63016;55.030;38.710;2023-05-02T00:40:48;100472.50;;;6.89;56.13
74544;BME280;63016;55.030;38.710;2023-05-02T00:43:14;100466.88;;;6.84;55.96
74544;BME280;63016;55.030;38.710;2023-05-02T00:45:41;100464.53;;;6.81;55.93
74544;BME280;63016;55.030;38.710;2023-05-02T00:48:13;100471.78;;;6.78;55.46
74544;BME280;63016;55.030;38.710;2023-05-02T00:50:41;100474.84;;;6.72;56.09
74544;BME280;63016;55.030;38.710;2023-05-02T00:53:08;100486.06;;;6.72;55.90
74544;BME280;63016;55.030;38.710;2023-05-02T00:55:35;100494.91;;;6.69;55.96
74544;BME280;63016;55.030;38.710;2023-05-02T00:58:20;100482.47;;;6.63;55.89
74544;BME280;63016;55.030;38.710;2023-05-02T01:06:44;100496.31;;;6.53;55.80
74544;BME280;63016;55.030;38.710;2023-05-02T01:14:30;100519.16;;;6.48;56.13
74544;BME280;63016;55.030;38.710;2023-05-02T01:17:01;100516.94;;;6.43;56.23
74544;BME280;63016;55.030;38.710;2023-05-02T01:19:38;100517.44;;;6.37;56.49
74544;BME280;63016;55.030;38.710;2023-05-02T01:22:07;100531.94;;;6.39;56.23
74544;BME280;63016;55.030;38.710;2023-05-02T01:25:03;100529.44;;;6.38;56.03
74544;BME280;63016;55.030;38.710;2023-05-02T01:29:58;100526.06;;;6.26;55.78
74544;BME280;63016;55.030;38.710;2023-05-02T01:32:27;100538.91;;;6.28;56.41
74544;BME280;63016;55.030;38.710;2023-05-02T01:34:56;100530.66;;;6.23;56.39
74544;BME280;63016;55.030;38.710;2023-05-02T01:37:23;100535.28;;;6.19;55.85
74544;BME280;63016;55.030;38.710;2023-05-02T01:39:51;100533.97;;;6.13;56.22
74544;BME280;63016;55.030;38.710;2023-05-02T01:42:19;100541.19;;;6.10;56.17
74544;BME280;63016;55.030;38.710;2023-05-02T01:44:46;100548.72;;;6.13;56.30
74544;BME280;63016;55.030;38.710;2023-05-02T01:47:12;100558.50;;;6.09;55.95
74544;BME280;63016;55.030;38.710;2023-05-02T01:49:40;100563.19;;;6.04;56.37
74544;BME280;63016;55.030;38.710;2023-05-02T01:52:10;100565.91;;;6.03;56.15
74544;BME280;63016;55.030;38.710;2023-05-02T01:54:37;100561.81;;;6.00;56.19
74544;BME280;63016;55.030;38.710;2023-05-02T01:57:06;100567.00;;;6.00;56.48
74544;BME280;63016;55.030;38.710;2023-05-02T01:59:33;100555.31;;;5.95;56.56
74544;BME280;63016;55.030;38.710;2023-05-02T02:02:01;100575.00;;;5.97;56.20
74544;BME280;63016;55.030;38.710;2023-05-02T02:04:27;100574.31;;;5.95;56.84
74544;BME280;63016;55.030;38.710;2023-05-02T02:07:05;100574.31;;;5.95;56.56
74544;BME280;63016;55.030;38.710;2023-05-02T02:09:33;100582.16;;;5.93;56.65
74544;BME280;63016;55.030;38.710;2023-05-02T02:14:49;100590.88;;;5.92;56.92
74544;BME280;63016;55.030;38.710;2023-05-02T02:17:22;100585.34;;;5.86;56.65
74544;BME280;63016;55.030;38.710;2023-05-02T02:19:49;100586.50;;;5.82;56.35
74544;BME280;63016;55.030;38.710;2023-05-02T02:22:19;100598.63;;;5.81;56.07
74544;BME280;63016;55.030;38.710;2023-05-02T02:24:45;100601.31;;;5.80;56.16
74544;BME280;63016;55.030;38.710;2023-05-02T02:27:12;100602.19;;;5.80;56.85
74544;BME280;63016;55.030;38.710;2023-05-02T02:29:37;100609.69;;;5.83;56.65
74544;BME280;63016;55.030;38.710;2023-05-02T02:32:02;100612.28;;;5.83;56.16
74544;BME280;63016;55.030;38.710;2023-05-02T02:34:28;100605.69;;;5.79;56.69
74544;BME280;63016;55.030;38.710;2023-05-02T02:37:04;100606.50;;;5.80;57.12
74544;BME280;63016;55.030;38.710;2023-05-02T02:48:11;100624.06;;;5.87;56.77
74544;BME280;63016;55.030;38.710;2023-05-02T02:56:15;100633.16;;;5.93;57.21
74544;BME280;63016;55.030;38.710;2023-05-02T03:01:23;100635.53;;;5.96;56.69
74544;BME280;63016;55.030;38.710;2023-05-02T03:03:52;100638.94;;;5.97;56.76
74544;BME280;63016;55.030;38.710;2023-05-02T03:06:19;100639.53;;;6.00;56.99
74544;BME280;63016;55.030;38.710;2023-05-02T03:08:45;100642.81;;;6.02;57.18
74544;BME280;63016;55.030;38.710;2023-05-02T03:11:11;100646.94;;;6.05;56.63
74544;BME280;63016;55.030;38.710;2023-05-02T03:13:36;100656.97;;;6.09;57.12
74544;BME280;63016;55.030;38.710;2023-05-02T03:16:23;100650.69;;;6.12;57.06
74544;BME280;63016;55.030;38.710;2023-05-02T03:18:53;100648.81;;;6.14;57.25
74544;BME280;63016;55.030;38.710;2023-05-02T03:21:19;100654.59;;;6.17;56.56
74544;BME280;63016;55.030;38.710;2023-05-02T03:23:44;100660.81;;;6.26;57.04
74544;BME280;63016;55.030;38.710;2023-05-02T03:26:10;100666.81;;;6.27;56.97
74544;BME280;63016;55.030;38.710;2023-05-02T03:28:35;100663.75;;;6.33;56.77
74544;BME280;63016;55.030;38.710;2023-05-02T03:31:01;100674.50;;;6.39;57.02
74544;BME280;63016;55.030;38.710;2023-05-02T03:33:26;100679.41;;;6.42;57.07
74544;BME280;63016;55.030;38.710;2023-05-02T03:35:52;100685.78;;;6.50;57.15
74544;BME280;63016;55.030;38.710;2023-05-02T03:38:17;100689.66;;;6.55;57.26
74544;BME280;63016;55.030;38.710;2023-05-02T03:40:43;100685.66;;;6.62;56.98
74544;BME280;63016;55.030;38.710;2023-05-02T03:43:08;100679.38;;;6.65;57.45
74544;BME280;63016;55.030;38.710;2023-05-02T03:45:35;100682.91;;;6.75;57.28
74544;BME280;63016;55.030;38.710;2023-05-02T03:48:01;100684.19;;;6.81;57.01
74544;BME280;63016;55.030;38.710;2023-05-02T03:50:27;100694.09;;;6.87;56.84
74544;BME280;63016;55.030;38.710;2023-05-02T03:52:53;100699.47;;;6.95;57.30
74544;BME280;63016;55.030;38.710;2023-05-02T03:55:18;100699.09;;;7.00;57.26
74544;BME280;63016;55.030;38.710;2023-05-02T03:57:43;100703.56;;;7.09;57.09
74544;BME280;63016;55.030;38.710;2023-05-02T04:00:10;100706.38;;;7.17;57.36
74544;BME280;63016;55.030;38.710;2023-05-02T04:02:35;100712.72;;;7.24;56.72
74544;BME280;63016;55.030;38.710;2023-05-02T04:05:01;100712.09;;;7.32;57.33
74544;BME280;63016;55.030;38.710;2023-05-02T04:07:26;100715.00;;;7.38;57.27
74544;BME280;63016;55.030;38.710;2023-05-02T04:09:52;100717.09;;;7.44;56.92
74544;BME280;63016;55.030;38.710;2023-05-02T04:12:18;100720.63;;;7.55;57.13
74544;BME280;63016;55.030;38.710;2023-05-02T04:14:44;100738.16;;;7.62;57.28
74544;BME280;63016;55.030;38.710;2023-05-02T04:17:10;100718.41;;;7.71;57.43
74544;BME280;63016;55.030;38.710;2023-05-02T04:19:35;100727.22;;;7.80;56.68
74544;BME280;63016;55.030;38.710;2023-05-02T04:22:01;100722.31;;;7.86;56.90
74544;BME280;63016;55.030;38.710;2023-05-02T04:24:27;100722.38;;;7.96;56.61
74544;BME280;63016;55.030;38.710;2023-05-02T04:26:53;100725.84;;;8.06;57.00
74544;BME280;63016;55.030;38.710;2023-05-02T04:29:19;100727.53;;;8.17;57.07
74544;BME280;63016;55.030;38.710;2023-05-02T04:31:44;100740.47;;;8.28;56.75
74544;BME280;63016;55.030;38.710;2023-05-02T04:34:10;100739.72;;;8.37;57.20
74544;BME280;63016;55.030;38.710;2023-05-02T04:36:36;100739.88;;;8.45;56.66
74544;BME280;63016;55.030;38.710;2023-05-02T04:39:02;100744.28;;;8.55;56.57
74544;BME280;63016;55.030;38.710;2023-05-02T04:41:29;100736.00;;;8.61;56.75
74544;BME280;63016;55.030;38.710;2023-05-02T04:43:54;100744.50;;;8.72;56.83
74544;BME280;63016;55.030;38.710;2023-05-02T04:46:20;100748.78;;;8.83;57.09
74544;BME280;63016;55.030;38.710;2023-05-02T04:48:45;100754.00;;;8.93;56.59
74544;BME280;63016;55.030;38.710;2023-05-02T04:51:11;100759.38;;;9.01;56.39
74544;BME280;63016;55.030;38.710;2023-05-02T04:53:37;100739.78;;;9.07;56.61
74544;BME280;63016;55.030;38.710;2023-05-02T04:56:03;100749.94;;;9.19;56.63
74544;BME280;63016;55.030;38.710;2023-05-02T04:58:28;100748.28;;;9.28;56.94
74544;BME280;63016;55.030;38.710;2023-05-02T05:00:54;100752.81;;;9.36;57.04
74544;BME280;63016;55.030;38.710;2023-05-02T05:03:20;100750.50;;;9.52;57.13
74544;BME280;63016;55.030;38.710;2023-05-02T05:05:45;100744.59;;;9.60;57.14
74544;BME280;63016;55.030;38.710;2023-05-02T05:08:11;100741.16;;;9.69;57.06
74544;BME280;63016;55.030;38.710;2023-05-02T05:10:37;100742.78;;;9.79;56.49
74544;BME280;63016;55.030;38.710;2023-05-02T05:13:04;100742.09;;;9.87;56.78
74544;BME280;63016;55.030;38.710;2023-05-02T05:15:30;100746.88;;;10.01;56.77
74544;BME280;63016;55.030;38.710;2023-05-02T05:17:56;100753.41;;;10.15;56.33
74544;BME280;63016;55.030;38.710;2023-05-02T05:20:21;100753.13;;;10.28;56.96
74544;BME280;63016;55.030;38.710;2023-05-02T05:22:47;100745.53;;;10.44;57.00
74544;BME280;63016;55.030;38.710;2023-05-02T05:25:12;100753.78;;;10.67;56.99
74544;BME280;63016;55.030;38.710;2023-05-02T05:27:38;100754.81;;;10.84;56.95
74544;BME280;63016;55.030;38.710;2023-05-02T05:30:04;100758.72;;;10.98;56.69
74544;BME280;63016;55.030;38.710;2023-05-02T05:32:32;100757.69;;;11.09;56.37
74544;BME280;63016;55.030;38.710;2023-05-02T05:34:57;100760.38;;;11.17;56.19
74544;BME280;63016;55.030;38.710;2023-05-02T05:37:23;100759.19;;;11.29;56.28
74544;BME280;63016;55.030;38.710;2023-05-02T05:39:48;100754.44;;;11.42;56.34
74544;BME280;63016;55.030;38.710;2023-05-02T05:42:14;100751.88;;;11.50;56.32
74544;BME280;63016;55.030;38.710;2023-05-02T05:44:39;100762.47;;;11.67;56.33
74544;BME280;63016;55.030;38.710;2023-05-02T05:47:05;100759.94;;;11.75;56.02
74544;BME280;63016;55.030;38.710;2023-05-02T05:49:31;100753.56;;;11.95;56.27
74544;BME280;63016;55.030;38.710;2023-05-02T05:51:56;100761.56;;;12.20;56.33
74544;BME280;63016;55.030;38.710;2023-05-02T05:54:22;100755.44;;;12.37;56.34
74544;BME280;63016;55.030;38.710;2023-05-02T05:56:48;100753.03;;;12.44;56.27
74544;BME280;63016;55.030;38.710;2023-05-02T05:59:13;100773.56;;;12.65;55.96
74544;BME280;63016;55.030;38.710;2023-05-02T06:01:39;100762.81;;;12.76;55.63
74544;BME280;63016;55.030;38.710;2023-05-02T06:04:05;100772.19;;;12.86;55.93
74544;BME280;63016;55.030;38.710;2023-05-02T06:06:31;100777.28;;;13.04;55.66
74544;BME280;63016;55.030;38.710;2023-05-02T06:08:57;100781.91;;;13.19;55.84
74544;BME280;63016;55.030;38.710;2023-05-02T06:11:23;100786.75;;;13.31;55.45
74544;BME280;63016;55.030;38.710;2023-05-02T06:13:52;100775.44;;;13.47;55.56
74544;BME280;63016;55.030;38.710;2023-05-02T06:16:18;100775.63;;;13.70;55.52
74544;BME280;63016;55.030;38.710;2023-05-02T06:18:44;100774.78;;;13.86;55.06
74544;BME280;63016;55.030;38.710;2023-05-02T06:21:10;100779.53;;;13.99;54.99
74544;BME280;63016;55.030;38.710;2023-05-02T06:23:35;100772.63;;;14.06;54.92
74544;BME280;63016;55.030;38.710;2023-05-02T06:26:02;100781.13;;;14.16;54.57
74544;BME280;63016;55.030;38.710;2023-05-02T06:28:28;100787.69;;;14.20;54.58
74544;BME280;63016;55.030;38.710;2023-05-02T06:30:58;100786.38;;;14.24;54.40
74544;BME280;63016;55.030;38.710;2023-05-02T06:33:23;100781.13;;;14.32;54.31
74544;BME280;63016;55.030;38.710;2023-05-02T06:35:52;100784.19;;;14.44;54.37
74544;BME280;63016;55.030;38.710;2023-05-02T06:38:18;100790.91;;;14.55;54.48
74544;BME280;63016;55.030;38.710;2023-05-02T06:40:44;100789.56;;;14.67;54.39
74544;BME280;63016;55.030;38.710;2023-05-02T06:43:10;100795.94;;;14.81;54.40
74544;BME280;63016;55.030;38.710;2023-05-02T06:45:35;100795.94;;;14.81;54.40
74544;BME280;63016;55.030;38.710;2023-05-02T06:48:01;100795.94;;;14.81;54.40
74544;BME280;63016;55.030;38.710;2023-05-02T06:50:28;100785.59;;;15.10;53.66
74544;BME280;63016;55.030;38.710;2023-05-02T06:52:53;100791.44;;;15.21;53.87
74544;BME280;63016;55.030;38.710;2023-05-02T06:55:19;100797.63;;;15.28;53.36
74544;BME280;63016;55.030;38.710;2023-05-02T06:57:45;100790.41;;;15.30;53.09
74544;BME280;63016;55.030;38.710;2023-05-02T07:00:11;100795.97;;;15.35;53.02
74544;BME280;63016;55.030;38.710;2023-05-02T07:02:37;100801.69;;;15.38;53.22
74544;BME280;63016;55.030;38.710;2023-05-02T07:05:03;100796.19;;;15.48;52.98
74544;BME280;63016;55.030;38.710;2023-05-02T07:07:28;100794.38;;;15.49;52.46
74544;BME280;63016;55.030;38.710;2023-05-02T07:09:54;100780.44;;;15.48;52.57
74544;BME280;63016;55.030;38.710;2023-05-02T07:12:19;100792.03;;;15.54;52.63
74544;BME280;63016;55.030;38.710;2023-05-02T07:14:45;100792.16;;;15.60;52.67
74544;BME280;63016;55.030;38.710;2023-05-02T07:17:11;100793.78;;;15.61;52.41
74544;BME280;63016;55.030;38.710;2023-05-02T07:19:36;100787.72;;;15.61;52.74
74544;BME280;63016;55.030;38.710;2023-05-02T07:22:02;100798.41;;;15.67;52.19
74544;BME280;63016;55.030;38.710;2023-05-02T07:24:28;100797.56;;;15.67;51.80
74544;BME280;63016;55.030;38.710;2023-05-02T07:26:53;100791.13;;;15.70;52.25
74544;BME280;63016;55.030;38.710;2023-05-02T07:29:19;74476.66;;;15.72;51.85
74544;BME280;63016;55.030;38.710;2023-05-02T07:31:44;100802.94;;;15.74;52.08
74544;BME280;63016;55.030;38.710;2023-05-02T07:34:10;100806.19;;;15.76;52.10
74544;BME280;63016;55.030;38.710;2023-05-02T07:36:35;100797.34;;;15.77;52.24
74544;BME280;63016;55.030;38.710;2023-05-02T07:39:01;100803.50;;;15.84;52.10
74544;BME280;63016;55.030;38.710;2023-05-02T07:41:26;100793.44;;;15.87;52.07
74544;BME280;63016;55.030;38.710;2023-05-02T07:43:52;100803.72;;;15.97;51.81
74544;BME280;63016;55.030;38.710;2023-05-02T07:46:17;100796.66;;;15.98;51.90
74544;BME280;63016;55.030;38.710;2023-05-02T07:48:43;100806.66;;;16.02;51.71
74544;BME280;63016;55.030;38.710;2023-05-02T07:51:09;100802.81;;;16.05;51.53
74544;BME280;63016;55.030;38.710;2023-05-02T07:53:35;100805.72;;;16.10;51.44
74544;BME280;63016;55.030;38.710;2023-05-02T07:56:02;100807.56;;;16.09;51.13
74544;BME280;63016;55.030;38.710;2023-05-02T07:58:29;100790.50;;;16.05;51.30
74544;BME280;63016;55.030;38.710;2023-05-02T08:00:54;100801.31;;;16.10;51.79
74544;BME280;63016;55.030;38.710;2023-05-02T08:03:20;100803.22;;;16.16;50.94
74544;BME280;63016;55.030;38.710;2023-05-02T08:05:45;100807.00;;;16.14;50.63
74544;BME280;63016;55.030;38.710;2023-05-02T08:08:11;100801.13;;;16.12;50.64
74544;BME280;63016;55.030;38.710;2023-05-02T08:10:36;100802.75;;;16.13;51.05
74544;BME280;63016;55.030;38.710;2023-05-02T08:13:02;100795.66;;;16.13;51.14
74544;BME280;63016;55.030;38.710;2023-05-02T08:15:27;100805.94;;;16.23;51.15
74544;BME280;63016;55.030;38.710;2023-05-02T08:17:54;100809.94;;;16.34;51.15
74544;BME280;63016;55.030;38.710;2023-05-02T08:20:20;100805.94;;;16.38;51.13
74544;BME280;63016;55.030;38.710;2023-05-02T08:22:47;100805.78;;;16.39;50.62
74544;BME280;63016;55.030;38.710;2023-05-02T08:25:12;100803.97;;;16.40;50.36
74544;BME280;63016;55.030;38.710;2023-05-02T08:27:38;100805.59;;;16.41;50.12
74544;BME280;63016;55.030;38.710;2023-05-02T08:30:04;100804.94;;;16.39;50.51
74544;BME280;63016;55.030;38.710;2023-05-02T08:32:31;100807.59;;;16.39;50.25
74544;BME280;63016;55.030;38.710;2023-05-02T08:34:56;100804.78;;;16.40;50.38
74544;BME280;63016;55.030;38.710;2023-05-02T08:37:22;100803.59;;;16.43;50.37
74544;BME280;63016;55.030;38.710;2023-05-02T08:39:47;100798.16;;;16.44;49.92
74544;BME280;63016;55.030;38.710;2023-05-02T08:42:13;100802.03;;;16.49;50.58
74544;BME280;63016;55.030;38.710;2023-05-02T08:44:38;100797.97;;;16.46;50.41
74544;BME280;63016;55.030;38.710;2023-05-02T08:47:04;100805.34;;;16.51;49.89
74544;BME280;63016;55.030;38.710;2023-05-02T08:49:31;100801.88;;;16.50;49.77
74544;BME280;63016;55.030;38.710;2023-05-02T08:52:00;100806.97;;;16.52;50.10
74544;BME280;63016;55.030;38.710;2023-05-02T08:54:26;100798.44;;;16.50;49.53
74544;BME280;63016;55.030;38.710;2023-05-02T08:56:53;100799.41;;;16.49;49.04
74544;BME280;63016;55.030;38.710;2023-05-02T08:59:33;100802.88;;;16.49;49.31
74544;BME280;63016;55.030;38.710;2023-05-02T09:02:03;100801.22;;;16.48;49.77
74544;BME280;63016;55.030;38.710;2023-05-02T09:04:30;100812.59;;;16.49;49.62
74544;BME280;63016;55.030;38.710;2023-05-02T09:06:59;100796.78;;;16.49;49.33
74544;BME280;63016;55.030;38.710;2023-05-02T09:09:25;100787.44;;;16.46;49.25
74544;BME280;63016;55.030;38.710;2023-05-02T09:11:51;100792.50;;;16.48;49.12
74544;BME280;63016;55.030;38.710;2023-05-02T09:14:17;100786.16;;;16.42;49.02
74544;BME280;63016;55.030;38.710;2023-05-02T09:16:43;100783.97;;;16.45;48.88
74544;BME280;63016;55.030;38.710;2023-05-02T09:19:09;100787.44;;;16.46;48.95
74544;BME280;63016;55.030;38.710;2023-05-02T09:24:01;100783.78;;;16.47;48.64
74544;BME280;63016;55.030;38.710;2023-05-02T09:26:38;100777.44;;;16.41;48.63
74544;BME280;63016;55.030;38.710;2023-05-02T09:29:04;100793.50;;;16.47;48.76
74544;BME280;63016;55.030;38.710;2023-05-02T09:31:34;100788.78;;;16.42;48.74
74544;BME280;63016;55.030;38.710;2023-05-02T09:34:13;100781.53;;;16.44;48.13
74544;BME280;63016;55.030;38.710;2023-05-02T09:36:44;100783.78;;;16.47;48.34
74544;BME280;63016;55.030;38.710;2023-05-02T09:39:12;100787.44;;;16.46;48.84
74544;BME280;63016;55.030;38.710;2023-05-02T09:41:42;100781.97;;;16.48;48.65
74544;BME280;63016;55.030;38.710;2023-05-02T09:44:15;100793.31;;;16.48;48.29
74544;BME280;63016;55.030;38.710;2023-05-02T09:46:47;100781.81;;;16.49;48.20
74544;BME280;63016;55.030;38.710;2023-05-02T09:49:13;100780.16;;;16.48;48.16
74544;BME280;63016;55.030;38.710;2023-05-02T09:51:48;100785.88;;;16.52;48.33
74544;BME280;63016;55.030;38.710;2023-05-02T09:54:34;100773.78;;;16.57;49.29
74544;BME280;63016;55.030;38.710;2023-05-02T09:57:03;100776.06;;;16.60;48.69
74544;BME280;63016;55.030;38.710;2023-05-02T09:59:28;100768.44;;;16.65;48.64
74544;BME280;63016;55.030;38.710;2023-05-02T10:01:55;100768.09;;;16.68;48.48
74544;BME280;63016;55.030;38.710;2023-05-02T10:04:21;100770.34;;;16.72;48.47
74544;BME280;63016;55.030;38.710;2023-05-02T10:06:50;100764.94;;;16.73;48.41
74544;BME280;63016;55.030;38.710;2023-05-02T10:09:18;100759.25;;;16.76;47.77
74544;BME280;63016;55.030;38.710;2023-05-02T10:11:44;100777.81;;;16.83;47.67
74544;BME280;63016;55.030;38.710;2023-05-02T10:14:11;100759.72;;;16.80;47.96
74544;BME280;63016;55.030;38.710;2023-05-02T10:17:00;100758.53;;;16.82;47.75
74544;BME280;63016;55.030;38.710;2023-05-02T10:19:38;100765.88;;;16.87;47.61
74544;BME280;63016;55.030;38.710;2023-05-02T10:22:06;100755.97;;;16.89;47.35
74544;BME280;63016;55.030;38.710;2023-05-02T10:24:33;100744.78;;;16.87;47.55
74544;BME280;63016;55.030;38.710;2023-05-02T10:26:59;100758.88;;;16.94;48.03
74544;BME280;63016;55.030;38.710;2023-05-02T10:29:30;100755.03;;;16.96;47.38
74544;BME280;63016;55.030;38.710;2023-05-02T10:31:57;100741.03;;;16.96;46.96
74544;BME280;63016;55.030;38.710;2023-05-02T10:34:26;100736.16;;;16.93;47.49
74544;BME280;63016;55.030;38.710;2023-05-02T10:36:54;100738.22;;;16.98;47.33
74544;BME280;63016;55.030;38.710;2023-05-02T10:39:19;100734.41;;;17.00;47.16
74544;BME280;63016;55.030;38.710;2023-05-02T10:41:50;100732.22;;;17.04;47.50
74544;BME280;63016;55.030;38.710;2023-05-02T10:44:31;100737.94;;;17.07;47.52
74544;BME280;63016;55.030;38.710;2023-05-02T10:46:56;100743.00;;;17.09;46.72
74544;BME280;63016;55.030;38.710;2023-05-02T10:49:22;100742.19;;;17.08;46.60
74544;BME280;63016;55.030;38.710;2023-05-02T10:51:51;100744.84;;;17.08;46.37
74544;BME280;63016;55.030;38.710;2023-05-02T10:54:24;100744.84;;;17.08;46.34
74544;BME280;63016;55.030;38.710;2023-05-02T10:59:42;100732.25;;;17.10;47.07
74544;BME280;63016;55.030;38.710;2023-05-02T11:05:03;100731.09;;;17.13;46.62
74544;BME280;63016;55.030;38.710;2023-05-02T11:07:33;100735.16;;;17.15;46.43
74544;BME280;63016;55.030;38.710;2023-05-02T11:10:25;100741.06;;;17.17;47.81
74544;BME280;63016;55.030;38.710;2023-05-02T11:12:55;100727.25;;;17.15;46.28
74544;BME280;63016;55.030;38.710;2023-05-02T11:18:32;100725.88;;;17.19;46.18
74544;BME280;63016;55.030;38.710;2023-05-02T11:20:51;100718.75;;;17.20;46.16
74544;BME280;63016;55.030;38.710;2023-05-02T11:23:21;100709.84;;;17.21;45.97
74544;BME280;63016;55.030;38.710;2023-05-02T11:25:50;100714.38;;;17.27;46.10
74544;BME280;63016;55.030;38.710;2023-05-02T11:34:02;100712.38;;;17.29;45.68
74544;BME280;63016;55.030;38.710;2023-05-02T11:36:31;100713.00;;;17.31;45.49
74544;BME280;63016;55.030;38.710;2023-05-02T11:39:01;100713.41;;;17.35;45.30
74544;BME280;63016;55.030;38.710;2023-05-02T11:41:39;100708.78;;;17.37;45.97
74544;BME280;63016;55.030;38.710;2023-05-02T11:44:05;100707.78;;;17.38;45.68
74544;BME280;63016;55.030;38.710;2023-05-02T11:46:31;100700.69;;;17.38;45.75
74544;BME280;63016;55.030;38.710;2023-05-02T11:48:58;100696.22;;;17.39;45.03
74544;BME280;63016;55.030;38.710;2023-05-02T11:51:23;100705.38;;;17.43;45.37
74544;BME280;63016;55.030;38.710;2023-05-02T11:53:49;100700.56;;;17.46;45.82
74544;BME280;63016;55.030;38.710;2023-05-02T11:56:22;100707.69;;;17.53;45.48
74544;BME280;63016;55.030;38.710;2023-05-02T11:58:57;100704.13;;;17.60;45.19
74544;BME280;63016;55.030;38.710;2023-05-02T12:01:23;100694.16;;;17.62;44.96
74544;BME280;63016;55.030;38.710;2023-05-02T12:03:49;100689.25;;;17.59;45.35
74544;BME280;63016;55.030;38.710;2023-05-02T12:06:17;100698.66;;;17.68;45.71
74544;BME280;63016;55.030;38.710;2023-05-02T12:08:45;100702.56;;;17.72;45.12
74544;BME280;63016;55.030;38.710;2023-05-02T12:11:13;100703.03;;;17.76;44.44
74544;BME280;63016;55.030;38.710;2023-05-02T12:13:46;100696.94;;;17.76;44.96
74544;BME280;63016;55.030;38.710;2023-05-02T12:16:12;100694.31;;;17.76;44.77
74544;BME280;63016;55.030;38.710;2023-05-02T12:18:38;100691.03;;;17.73;44.25
74544;BME280;63016;55.030;38.710;2023-05-02T12:21:04;100697.56;;;17.78;44.99
74544;BME280;63016;55.030;38.710;2023-05-02T12:23:30;100693.91;;;17.79;44.62
74544;BME280;63016;55.030;38.710;2023-05-02T12:25:57;100684.78;;;17.81;44.76
74544;BME280;63016;55.030;38.710;2023-05-02T12:28:23;100686.41;;;17.82;43.98
74544;BME280;63016;55.030;38.710;2023-05-02T12:30:49;100684.78;;;17.81;44.31
74544;BME280;63016;55.030;38.710;2023-05-02T12:33:15;100691.94;;;17.87;44.75
74544;BME280;63016;55.030;38.710;2023-05-02T12:35:41;100692.97;;;17.93;44.60
74544;BME280;63016;55.030;38.710;2023-05-02T12:40:33;100681.84;;;17.97;43.83
74544;BME280;63016;55.030;38.710;2023-05-02T12:43:00;100695.25;;;18.03;43.67
74544;BME280;63016;55.030;38.710;2023-05-02T12:45:29;100677.56;;;17.96;43.84
74544;BME280;63016;55.030;38.710;2023-05-02T12:47:59;100690.78;;;18.03;44.03
74544;BME280;63016;55.030;38.710;2023-05-02T12:50:35;100685.34;;;18.05;44.13
74544;BME280;63016;55.030;38.710;2023-05-02T12:53:01;100675.59;;;18.05;44.21
74544;BME280;63016;55.030;38.710;2023-05-02T12:55:28;100678.09;;;18.13;44.18
74544;BME280;63016;55.030;38.710;2023-05-02T12:58:04;100678.91;;;18.20;44.06
74544;BME280;63016;55.030;38.710;2023-05-02T13:00:31;100685.44;;;18.24;44.17
74544;BME280;63016;55.030;38.710;2023-05-02T13:02:57;100663.06;;;18.20;44.34
74544;BME280;63016;55.030;38.710;2023-05-02T13:05:23;100680.00;;;18.33;43.80
74544;BME280;63016;55.030;38.710;2023-05-02T13:07:49;100677.97;;;18.35;43.72
74544;BME280;63016;55.030;38.710;2023-05-02T13:10:15;100674.94;;;18.38;43.88
74544;BME280;63016;55.030;38.710;2023-05-02T13:12:45;100672.47;;;18.36;43.87
74544;BME280;63016;55.030;38.710;2023-05-02T13:15:12;100672.91;;;18.46;43.89
74544;BME280;63016;55.030;38.710;2023-05-02T13:17:38;100681.06;;;18.52;43.79
74544;BME280;63016;55.030;38.710;2023-05-02T13:20:04;100670.50;;;18.52;44.12
74544;BME280;63016;55.030;38.710;2023-05-02T13:22:29;100670.31;;;18.53;44.09
74544;BME280;63016;55.030;38.710;2023-05-02T13:24:55;100667.88;;;18.58;43.60
74544;BME280;63016;55.030;38.710;2023-05-02T13:27:24;100669.94;;;18.63;43.66
74544;BME280;63016;55.030;38.710;2023-05-02T13:29:49;100675.66;;;18.66;43.56
74544;BME280;63016;55.030;38.710;2023-05-02T13:32:15;100669.72;;;18.64;43.57
74544;BME280;63016;55.030;38.710;2023-05-02T13:34:41;100665.50;;;18.70;43.61
74544;BME280;63016;55.030;38.710;2023-05-02T13:37:07;100667.13;;;18.71;43.18